Time;durP1;ratioP1;P1;durP2;ratioP2;P2;SDS_P1;SDS_P2;PMS_P1;PMS_P2;Temp;Humidity;BMP_temperature;BMP_pressure;BME280_temperature;BME280_humidity;BME280_pressure;Samples;Min_cycle;Max_cycle;Signal;HPM_P1;HPM_P2
2024/03/10 00:01:05;;;;;;;52.10;24.55;;;7.90;99.90;;;6.67;71.11;100510.97;5002424;28;20037;-82
2024/03/10 00:03:31;;;;;;;47.65;24.50;;;7.90;99.90;;;6.64;71.11;100518.09;5020969;28;20503;-80
2024/03/10 00:05:57;;;;;;;53.30;24.85;;;7.80;99.90;;;6.59;71.45;100518.25;5018555;28;20107;-81
2024/03/10 00:08:23;;;;;;;46.72;23.42;;;7.90;99.90;;;6.56;71.01;100518.31;4995383;28;20740;-81
2024/03/10 00:10:50;;;;;;;50.40;24.98;;;7.80;99.90;;;6.53;71.24;100507.97;5022985;28;20429;-81
2024/03/10 00:13:21;;;;;;;55.78;26.98;;;7.80;99.90;;;6.49;71.19;100504.59;5034247;28;20086;-80
2024/03/10 00:15:47;;;;;;;54.92;26.60;;;7.80;99.90;;;6.46;71.88;100519.56;5012225;28;20051;-80
2024/03/10 00:18:12;;;;;;;58.10;27.80;;;7.70;99.90;;;6.42;71.49;100510.94;5032293;28;20041;-80
2024/03/10 00:20:38;;;;;;;51.08;24.60;;;7.60;99.90;;;6.39;71.48;100513.66;4995795;28;20115;-80
2024/03/10 00:23:05;;;;;;;52.45;26.38;;;7.60;99.90;;;6.39;71.48;100507.56;4962111;28;20032;-80
2024/03/10 00:25:31;;;;;;;52.25;24.80;;;7.60;99.90;;;6.36;71.33;100513.75;5031315;28;20111;-81
2024/03/10 00:27:59;;;;;;;54.38;25.05;;;7.60;99.90;;;6.34;71.31;100507.72;5004011;28;20049;-82
2024/03/10 00:30:25;;;;;;;55.78;25.70;;;7.60;99.90;;;6.36;71.31;100517.22;5027323;28;20048;-80
2024/03/10 00:32:51;;;;;;;47.67;24.92;;;7.60;99.90;;;6.36;71.38;100517.22;5012211;28;20512;-81
2024/03/10 00:35:18;;;;;;;50.80;26.45;;;7.60;99.90;;;6.36;71.57;100512.00;5002664;28;20046;-81
2024/03/10 00:37:43;;;;;;;52.95;23.83;;;7.60;99.90;;;6.39;71.09;100515.41;5003417;28;20049;-80
2024/03/10 00:40:10;;;;;;;48.03;24.23;;;7.60;99.90;;;6.38;71.02;100508.47;5008546;28;20567;-80
2024/03/10 00:42:35;;;;;;;52.60;25.38;;;7.60;99.90;;;6.38;70.38;100524.19;4992542;28;20039;-80
2024/03/10 00:45:04;;;;;;;49.00;23.85;;;7.70;99.90;;;6.40;70.82;100507.53;5023575;28;20068;-80
2024/03/10 00:47:30;;;;;;;53.75;25.85;;;7.70;99.90;;;6.41;70.64;100509.22;5006406;28;20046;-81
2024/03/10 00:49:56;;;;;;;56.95;27.42;;;7.60;99.90;;;6.43;70.60;100509.19;5020656;28;20041;-80
2024/03/10 00:52:22;;;;;;;47.90;24.08;;;7.70;99.90;;;6.44;70.05;100510.91;4991264;28;20041;-81
2024/03/10 00:54:47;;;;;;;48.65;24.88;;;7.70;99.90;;;6.45;69.70;100505.59;5000832;28;20036;-81
2024/03/10 00:57:14;;;;;;;54.08;25.17;;;7.70;99.90;;;6.47;69.77;100514.25;5043456;28;20024;-81
2024/03/10 00:59:46;;;;;;;49.50;23.55;;;7.70;99.90;;;6.47;70.23;100508.19;5011885;28;20111;-80
2024/03/10 01:02:12;;;;;;;51.03;26.55;;;7.70;99.90;;;6.45;69.93;100515.22;5001025;28;20099;-82
2024/03/10 01:04:38;;;;;;;48.38;23.73;;;7.80;99.90;;;6.47;70.03;100516.03;5021352;28;20033;-82
2024/03/10 01:07:04;;;;;;;46.08;23.48;;;7.70;99.90;;;6.48;69.83;100509.88;4999222;28;20047;-80
2024/03/10 01:09:30;;;;;;;53.50;25.65;;;7.70;99.90;;;6.47;69.49;100503.78;5021944;28;20121;-81
2024/03/10 01:12:01;;;;;;;51.47;26.15;;;7.80;99.90;;;6.49;69.46;100517.69;5001028;28;20450;-80
2024/03/10 01:14:28;;;;;;;50.15;24.00;;;7.70;99.90;;;6.50;69.15;100510.69;5013416;28;20033;-80
2024/03/10 01:16:53;;;;;;;52.15;22.60;;;7.80;99.90;;;6.50;69.82;100514.16;5002929;28;20483;-81
2024/03/10 01:19:19;;;;;;;50.75;21.23;;;7.70;99.90;;;6.44;69.87;100514.38;5005533;28;20054;-81
2024/03/10 01:21:46;;;;;;;46.45;23.50;;;7.70;99.90;;;6.43;69.65;100510.03;5051254;28;20040;-80
2024/03/10 01:24:21;;;;;;;50.50;24.17;;;7.70;99.90;;;6.45;69.59;100523.06;4979518;28;20519;-82
2024/03/10 01:26:50;;;;;;;42.40;22.15;;;7.70;99.90;;;6.43;69.57;100524.88;5023294;28;20044;-80
2024/03/10 01:29:21;;;;;;;50.03;22.00;;;7.70;99.90;;;6.44;69.62;100511.75;4991478;28;20029;-80
2024/03/10 01:31:47;;;;;;;45.28;22.48;;;7.70;99.90;;;6.43;69.23;100507.41;5005410;28;20107;-80
2024/03/10 01:34:13;;;;;;;50.05;24.08;;;7.70;99.90;;;6.35;69.08;100505.06;5003944;28;20297;-80
2024/03/10 01:36:39;;;;;;;48.92;24.10;;;7.70;99.90;;;6.39;69.60;100510.19;5018887;28;20029;-81
2024/03/10 01:39:05;;;;;;;46.10;22.52;;;7.60;99.90;;;6.36;69.37;100511.16;5019234;28;20044;-81
2024/03/10 01:41:31;;;;;;;50.42;24.40;;;7.70;99.90;;;6.39;69.68;100497.94;5022167;28;20046;-81
2024/03/10 01:44:01;;;;;;;53.92;23.40;;;7.70;99.90;;;6.40;69.41;100504.06;5012237;28;20078;-80
2024/03/10 01:46:27;;;;;;;46.80;23.48;;;7.70;99.90;;;6.33;69.29;100506.88;5032627;28;20534;-81
2024/03/10 01:48:54;;;;;;;49.03;23.60;;;7.70;99.90;;;6.33;69.45;100493.81;5023878;28;20033;-81
2024/03/10 01:51:20;;;;;;;48.38;23.67;;;7.60;99.90;;;6.33;69.71;100496.41;5023920;28;20463;-80
2024/03/10 01:53:47;;;;;;;55.78;24.70;;;7.60;99.90;;;6.33;69.37;100498.19;5010835;28;20470;-80
2024/03/10 01:56:18;;;;;;;51.65;23.98;;;7.60;99.90;;;6.30;69.62;100488.66;5014242;28;20051;-81
2024/03/10 01:58:45;;;;;;;46.83;22.25;;;7.60;99.90;;;6.32;69.18;100491.22;5012244;28;20049;-80
2024/03/10 02:01:15;;;;;;;49.70;23.30;;;7.60;99.90;;;6.30;69.23;100486.03;5019929;28;20094;-81
2024/03/10 02:03:46;;;;;;;52.67;23.88;;;7.50;99.90;;;6.22;69.66;100485.44;5051729;28;20046;-82
2024/03/10 02:06:12;;;;;;;43.22;22.67;;;7.50;99.90;;;6.22;69.29;100492.41;4974213;28;20678;-81
2024/03/10 02:08:39;;;;;;;49.05;23.83;;;7.50;99.90;;;6.16;69.51;100491.72;5002692;28;20046;-80
2024/03/10 02:11:07;;;;;;;45.97;24.02;;;7.50;99.90;;;6.13;70.00;100484.00;5014410;28;20078;-80
2024/03/10 02:13:38;;;;;;;51.80;23.30;;;7.50;99.90;;;6.14;69.88;100490.91;5037720;28;20056;-79
2024/03/10 02:16:06;;;;;;;44.78;20.77;;;7.40;99.90;;;6.08;69.94;100479.81;5006283;28;20032;-81
2024/03/10 02:18:32;;;;;;;49.45;23.27;;;7.40;99.90;;;6.05;69.81;100480.75;5012176;28;20052;-81
2024/03/10 02:20:59;;;;;;;44.38;22.85;;;7.40;99.90;;;6.06;70.32;100484.22;4984560;28;20111;-81
2024/03/10 02:23:50;;;;;;;51.72;23.95;;;7.30;99.90;;;6.09;70.19;100484.13;5034271;28;20119;-81
2024/03/10 02:26:16;;;;;;;49.95;23.70;;;7.40;99.90;;;6.04;69.96;100486.88;5052856;28;20528;-81
2024/03/10 02:29:04;;;;;;;48.00;23.65;;;7.30;99.90;;;6.01;70.32;100486.13;4983454;28;20124;-81
2024/03/10 02:48:09;;;;;;;57.80;25.65;;;7.20;99.90;;;5.94;71.35;100473.25;5017381;28;20078;-80
2024/03/10 02:50:35;;;;;;;;;;;7.30;99.90;;;5.90;71.00;100470.75;5001551;28;20043;-81
2024/03/10 02:53:06;;;;;;;49.40;23.88;;;7.20;99.90;;;5.89;71.21;100466.44;4990663;28;19919;-80
2024/03/10 02:55:33;;;;;;;51.67;24.55;;;7.20;99.90;;;5.89;71.41;100469.03;5002291;28;20120;-81
2024/03/10 02:58:06;;;;;;;43.03;20.90;;;7.20;99.90;;;5.90;71.74;100473.38;5017596;28;20047;-80
2024/03/10 03:00:35;;;;;;;49.97;24.42;;;7.20;99.90;;;5.86;71.63;100467.38;4985473;28;20036;-81
2024/03/10 03:03:04;;;;;;;50.33;24.35;;;7.20;99.90;;;5.87;71.84;100463.84;4966133;28;20117;-81
2024/03/10 03:05:34;;;;;;;48.83;24.95;;;7.20;99.90;;;5.83;71.69;100457.03;5020102;28;20115;-81
2024/03/10 03:08:03;;;;;;;53.10;25.58;;;7.20;99.90;;;5.84;71.60;100456.13;5012374;28;20126;-81
2024/03/10 03:10:30;;;;;;;51.35;25.08;;;7.10;99.90;;;5.82;71.94;100455.31;5036956;28;20040;-80
2024/03/10 03:12:56;;;;;;;54.67;25.73;;;7.10;99.90;;;5.82;71.83;100465.75;4984680;28;20029;-80
2024/03/10 03:15:22;;;;;;;50.30;25.23;;;7.10;99.90;;;5.79;71.85;100450.19;5035876;28;20420;-81
2024/03/10 03:17:55;;;;;;;53.08;25.40;;;7.10;99.90;;;5.79;72.29;100447.59;5015482;28;20029;-81
2024/03/10 03:20:21;;;;;;;54.03;24.17;;;7.10;99.90;;;5.80;72.32;100467.56;5009076;28;20041;-82
2024/03/10 03:22:48;;;;;;;51.92;25.17;;;7.10;99.90;;;5.79;72.05;100460.66;5011171;28;20048;-80
2024/03/10 03:25:17;;;;;;;52.45;24.98;;;7.10;99.90;;;5.82;72.43;100460.53;5016860;28;20036;-81
2024/03/10 03:27:47;;;;;;;55.42;25.70;;;7.10;99.90;;;5.83;72.31;100459.66;5009303;28;20305;-81
2024/03/10 03:30:15;;;;;;;49.70;24.95;;;7.10;99.90;;;5.85;72.39;100451.75;4999629;28;20097;-80
2024/03/10 03:32:42;;;;;;;50.63;25.17;;;7.20;99.90;;;5.88;72.59;100449.91;5018516;28;20044;-81
2024/03/10 03:35:16;;;;;;;56.47;24.88;;;7.20;99.90;;;5.88;72.83;100455.13;5039401;28;20409;-80
2024/03/10 03:37:44;;;;;;;54.20;25.67;;;7.10;99.90;;;5.88;72.20;100446.44;5013215;28;20059;-82
2024/03/10 03:40:12;;;;;;;51.75;25.27;;;7.20;99.90;;;5.79;72.65;100442.34;4981831;28;20048;-81
2024/03/10 03:42:41;;;;;;;52.55;25.50;;;7.10;99.90;;;5.82;72.73;100444.84;4986373;28;20033;-81
2024/03/10 03:45:08;;;;;;;52.25;24.92;;;7.10;99.90;;;5.84;72.82;100450.03;4999049;28;20366;-81
2024/03/10 03:47:34;;;;;;;55.00;25.95;;;7.10;99.90;;;5.83;72.48;100446.59;5012693;28;20044;-80
2024/03/10 03:50:01;;;;;;;58.47;26.08;;;7.10;99.90;;;5.85;72.74;100447.41;5029820;28;20542;-81
2024/03/10 03:52:27;;;;;;;55.05;26.50;;;7.20;99.90;;;5.85;72.59;100447.41;5034693;28;20075;-80
2024/03/10 03:54:57;;;;;;;52.53;25.70;;;7.10;99.90;;;5.83;72.62;100441.34;5003724;28;20087;-81
2024/03/10 03:57:23;;;;;;;58.30;26.92;;;7.10;99.90;;;5.84;72.94;100450.03;5012917;28;20059;-81
2024/03/10 03:59:49;;;;;;;50.70;25.45;;;7.10;99.90;;;5.83;72.77;100450.94;5013414;28;20110;-81
2024/03/10 04:02:15;;;;;;;53.28;24.88;;;7.10;99.90;;;5.83;73.17;100449.19;5011958;28;20056;-81
2024/03/10 04:04:43;;;;;;;55.75;25.17;;;;;;;5.82;72.89;100457.06;5001598;28;20626;-82
2024/03/10 04:07:14;;;;;;;57.25;26.95;;;7.10;99.90;;;5.80;73.03;100446.66;4984517;28;20049;-81
2024/03/10 04:09:40;;;;;;;51.78;25.25;;;7.10;99.90;;;5.81;73.26;100453.63;5017771;28;20420;-81
2024/03/10 04:12:06;;;;;;;48.22;26.42;;;7.10;99.90;;;5.80;73.09;100448.44;5014748;28;20036;-81
2024/03/10 04:14:32;;;;;;;54.45;25.75;;;7.10;99.90;;;5.79;73.15;100452.81;5006445;28;20028;-81
2024/03/10 04:16:58;;;;;;;58.30;26.63;;;7.10;99.90;;;5.80;73.06;100454.50;5018057;28;20735;-80
2024/03/10 04:19:24;;;;;;;59.83;28.45;;;7.10;99.90;;;5.78;73.15;100456.31;4978348;28;20111;-80
2024/03/10 04:21:58;;;;;;;50.20;25.10;;;7.10;99.90;;;5.74;73.47;100452.97;5019692;28;20416;-81
2024/03/10 04:24:24;;;;;;;50.17;22.40;;;7.10;99.90;;;5.74;73.17;100457.31;5028782;28;20059;-81
2024/03/10 04:26:50;;;;;;;56.95;26.15;;;7.00;99.90;;;5.69;73.79;100447.00;5018586;28;20032;-82
2024/03/10 04:29:21;;;;;;;56.20;25.92;;;7.00;99.90;;;5.69;73.49;100451.38;5018690;28;20044;-80
2024/03/10 04:31:48;;;;;;;55.88;26.63;;;7.00;99.90;;;5.70;73.83;100440.00;5023817;28;21565;-81
2024/03/10 04:34:14;;;;;;;56.45;27.55;;;7.00;99.90;;;5.69;73.58;100446.16;4995613;28;20060;-81
2024/03/10 04:36:39;;;;;;;62.10;27.58;;;7.00;99.90;;;5.68;73.44;100444.41;5041980;28;20032;-81
2024/03/10 04:39:09;;;;;;;52.72;24.52;;;7.00;99.90;;;5.67;73.69;100437.50;5001528;28;20542;-81
2024/03/10 04:41:42;;;;;;;56.83;27.23;;;7.00;99.90;;;5.66;73.51;100436.66;5020079;28;20036;-81
2024/03/10 04:44:08;;;;;;;57.78;28.80;;;6.90;99.90;;;5.61;74.18;100437.69;4989418;28;20092;-81
2024/03/10 04:46:35;;;;;;;55.58;27.17;;;6.90;99.90;;;5.60;73.91;100428.16;4997604;28;20040;-81
2024/03/10 04:49:10;;;;;;;52.63;25.65;;;6.90;99.90;;;5.60;73.78;100434.22;5022641;28;20063;-81
2024/03/10 04:51:36;;;;;;;55.97;26.95;;;6.90;99.90;;;5.59;74.44;100426.44;5008282;28;20487;-80
2024/03/10 04:54:05;;;;;;;58.15;27.60;;;6.90;99.90;;;5.58;74.39;100429.97;5003711;28;20039;-81
2024/03/10 04:56:36;;;;;;;56.40;28.35;;;6.90;99.90;;;5.61;74.25;100424.63;4960856;28;20035;-81
2024/03/10 04:59:03;;;;;;;59.70;27.23;;;6.90;99.90;;;5.58;74.40;100427.34;4991077;28;20025;-81
2024/03/10 05:01:29;;;;;;;58.35;28.63;;;6.90;99.90;;;5.57;74.18;100429.09;5023884;28;20519;-80
2024/03/10 05:03:55;;;;;;;64.07;27.90;;;6.90;99.90;;;5.58;74.23;100428.19;5040337;28;20474;-81
2024/03/10 05:06:25;;;;;;;62.33;28.08;;;6.90;99.90;;;5.57;74.41;100425.63;5028331;28;20040;-80
2024/03/10 05:08:51;;;;;;;58.53;28.50;;;6.90;99.90;;;5.60;74.66;100425.53;4999399;28;20032;-80
2024/03/10 05:11:18;;;;;;;58.45;28.52;;;6.90;99.90;;;5.61;74.66;100428.09;5021975;28;20031;-80
2024/03/10 05:13:45;;;;;;;64.38;29.05;;;6.90;99.90;;;5.63;74.24;100428.91;5026332;28;20082;-80
2024/03/10 05:16:21;;;;;;;62.08;28.55;;;6.90;99.90;;;5.61;74.64;100427.25;5015660;28;20033;-81
2024/03/10 05:18:47;;;;;;;60.63;28.30;;;6.90;99.90;;;5.60;74.50;100428.16;5042213;28;20036;-80
2024/03/10 05:21:13;;;;;;;57.13;27.17;;;6.90;99.90;;;5.56;74.89;100424.78;4989927;28;20425;-81
2024/03/10 05:23:39;;;;;;;59.08;29.50;;;6.90;99.90;;;5.57;74.40;100430.84;5001505;28;20088;-81
2024/03/10 05:26:12;;;;;;;56.90;28.63;;;6.90;99.90;;;5.57;74.49;100431.69;4980339;28;20501;-81
2024/03/10 05:28:39;;;;;;;63.95;29.63;;;6.90;99.90;;;5.58;74.70;100430.81;5015183;28;20512;-81
2024/03/10 05:31:24;;;;;;;57.42;27.90;;;6.90;99.90;;;5.55;74.32;100426.53;5033132;28;20124;-80
2024/03/10 05:33:54;;;;;;;63.65;28.38;;;6.90;99.90;;;5.54;74.83;100435.25;5033939;28;20048;-81
2024/03/10 05:36:20;;;;;;;64.53;28.40;;;6.90;99.90;;;5.56;74.50;100435.22;5022901;28;20050;-81
2024/03/10 05:38:45;;;;;;;59.17;29.48;;;6.90;99.90;;;5.52;74.91;100437.06;4998337;28;20041;-80
2024/03/10 05:41:12;;;;;;;62.95;30.17;;;6.80;99.90;;;5.53;74.87;100430.94;5008083;28;20131;-81
2024/03/10 05:43:38;;;;;;;65.60;28.40;;;6.90;99.90;;;5.55;75.04;100436.97;5009662;28;20033;-81
2024/03/10 05:46:12;;;;;;;63.53;29.77;;;6.80;99.90;;;5.52;74.74;100433.59;4983960;28;20577;-81
2024/03/10 05:48:41;;;;;;;59.47;28.25;;;6.80;99.90;;;5.52;74.91;100428.38;5017201;28;20373;-81
2024/03/10 05:51:13;;;;;;;59.88;28.38;;;6.80;99.90;;;5.54;75.10;100429.19;5010312;28;20055;-79
2024/03/10 05:53:40;;;;;;;62.05;29.33;;;6.80;99.90;;;5.53;75.02;100433.56;5002301;28;20081;-80
2024/03/10 05:56:15;;;;;;;58.05;28.58;;;6.90;99.90;;;5.54;75.33;100432.66;4991395;28;20033;-81
2024/03/10 05:58:42;;;;;;;59.22;29.05;;;6.90;99.90;;;5.52;75.20;100429.22;5012366;28;20510;-81
2024/03/10 06:01:08;;;;;;;70.38;29.60;;;6.80;99.90;;;5.52;75.10;100431.84;4994463;28;20483;-81
2024/03/10 06:03:33;;;;;;;61.75;29.17;;;6.90;99.90;;;5.54;75.13;100430.03;4968810;28;20048;-81
2024/03/10 06:06:00;;;;;;;55.47;27.38;;;6.90;99.90;;;5.51;75.54;100431.91;5037815;28;20028;-80
2024/03/10 06:08:26;;;;;;;59.40;28.98;;;6.90;99.90;;;5.53;75.48;100435.31;5012249;28;20048;-80
2024/03/10 06:10:59;;;;;;;63.88;31.42;;;6.90;99.90;;;5.57;75.50;100436.06;4986565;28;20573;-81
2024/03/10 06:13:25;;;;;;;59.88;28.48;;;6.90;99.90;;;5.55;75.26;100431.75;5014487;28;20676;-81
2024/03/10 06:15:52;;;;;;;61.65;29.17;;;6.90;99.90;;;5.60;75.41;100441.22;5037148;28;20098;-81
2024/03/10 06:25:22;;;;;;;57.35;29.33;;;6.90;99.90;;;5.56;75.53;100432.59;5027022;28;20032;-81
2024/03/10 06:26:49;;;;;;;61.92;29.38;;;6.90;99.90;;;5.58;75.77;100437.78;4964276;28;20068;-81
2024/03/10 06:29:15;;;;;;;66.28;28.52;;;6.90;99.90;;;5.59;75.66;100436.88;5043304;28;20044;-80
2024/03/10 06:31:48;;;;;;;57.17;30.05;;;6.90;99.90;;;5.60;75.70;100436.00;5010644;28;20720;-81
2024/03/10 06:34:14;;;;;;;60.38;28.83;;;6.90;99.90;;;5.64;75.60;100437.63;5013929;28;20464;-81
2024/03/10 06:36:41;;;;;;;68.15;29.88;;;6.90;99.90;;;5.66;75.61;100447.09;5020755;28;20035;-81
2024/03/10 06:39:17;;;;;;;64.93;29.33;;;7.00;99.90;;;5.69;75.76;100448.75;5026804;28;20048;-81
2024/03/10 06:41:43;;;;;;;54.78;28.38;;;7.00;99.90;;;5.71;75.97;100449.56;5046887;28;20568;-81
2024/03/10 06:44:09;;;;;;;62.75;28.75;;;7.00;99.90;;;5.73;75.66;100445.16;4997981;28;20044;-81
2024/03/10 06:46:35;;;;;;;59.92;29.73;;;7.00;99.90;;;5.75;75.73;100444.19;5020432;28;20499;-80
2024/03/10 06:49:05;;;;;;;57.55;29.30;;;7.10;99.90;;;5.79;75.83;100451.94;5017149;28;20142;-81
2024/03/10 06:51:31;;;;;;;57.50;28.85;;;7.10;99.90;;;5.82;75.65;100463.16;5029271;28;20270;-81
2024/03/10 06:53:57;;;;;;;58.58;28.25;;;7.10;99.90;;;5.83;75.81;100464.88;5029421;28;20100;-80
2024/03/10 06:56:23;;;;;;;60.45;28.73;;;7.10;99.90;;;5.83;75.71;100466.59;5004563;28;20120;-82
2024/03/10 06:58:53;;;;;;;62.13;29.63;;;7.10;99.90;;;5.85;75.82;100462.19;4995437;28;20028;-81
2024/03/10 07:01:22;;;;;;;61.30;29.40;;;7.10;99.90;;;5.87;75.70;100457.78;5049450;28;20036;-80
2024/03/10 07:03:52;;;;;;;55.38;28.40;;;7.20;99.90;;;5.86;75.66;100467.38;5017538;28;20028;-81
2024/03/10 07:06:21;;;;;;;57.05;29.75;;;7.10;99.90;;;5.85;75.73;100470.91;5040497;28;20044;-81
2024/03/10 07:08:49;;;;;;;61.67;29.42;;;7.20;99.90;;;5.90;75.90;100466.38;4986821;28;20056;-80
2024/03/10 07:11:15;;;;;;;58.20;29.35;;;7.20;99.90;;;5.95;75.58;100466.28;5009815;28;20033;-80
2024/03/10 07:13:41;;;;;;;59.28;30.10;;;7.20;99.90;;;5.98;75.36;100468.78;5022778;28;20017;-79
2024/03/10 07:16:07;;;;;;;65.45;29.90;;;7.30;99.90;;;6.01;75.70;100468.69;5015364;28;20036;-80
2024/03/10 07:18:33;;;;;;;61.83;29.88;;;7.30;99.90;;;6.05;75.87;100469.47;4995018;28;20628;-81
2024/03/10 07:20:59;;;;;;;54.03;26.45;;;7.30;99.90;;;6.04;75.64;100470.34;5025083;28;20040;-81
2024/03/10 07:23:32;;;;;;;62.22;30.25;;;7.30;99.90;;;6.07;75.38;100467.63;5026603;28;22223;-81
2024/03/10 07:25:58;;;;;;;58.22;29.10;;;7.40;99.90;;;6.11;75.29;100470.13;4986130;28;20029;-80
2024/03/10 07:28:24;;;;;;;60.60;30.42;;;7.40;99.90;;;6.15;75.62;100470.84;4995740;28;21235;-81
2024/03/10 07:30:49;;;;;;;59.63;29.20;;;7.50;99.90;;;6.19;75.69;100464.63;5007585;28;20082;-81
2024/03/10 07:33:15;;;;;;;61.00;29.17;;;7.50;99.90;;;6.24;75.34;100467.09;5026826;28;20045;-81
2024/03/10 07:35:46;;;;;;;63.58;30.23;;;7.50;99.90;;;6.29;75.87;100466.03;4966196;28;20032;-81
2024/03/10 07:38:13;;;;;;;63.70;30.17;;;7.60;99.90;;;6.35;75.53;100459.75;5014928;28;20080;-81
2024/03/10 07:40:38;;;;;;;58.40;29.85;;;7.60;99.90;;;6.42;75.64;100460.41;5012579;28;20033;-82
2024/03/10 07:43:04;;;;;;;62.53;29.33;;;7.70;99.90;;;6.46;75.42;100465.47;5031876;28;20099;-80
2024/03/10 07:45:32;;;;;;;61.60;29.92;;;7.70;99.90;;;6.49;75.49;100467.13;5013728;28;20031;-81
2024/03/10 07:48:05;;;;;;;63.40;30.42;;;7.80;99.90;;;6.52;75.75;100459.16;5006436;28;20046;-80
2024/03/10 07:50:31;;;;;;;64.80;30.13;;;7.70;99.90;;;6.55;75.44;100465.16;5009803;28;20082;-81
2024/03/10 07:53:09;;;;;;;61.63;30.27;;;7.80;99.90;;;6.60;75.74;100470.22;5013952;28;20044;-80
2024/03/10 07:55:36;;;;;;;59.00;29.38;;;7.80;99.90;;;6.58;75.28;100461.56;5016408;28;20053;-80
2024/03/10 07:58:05;;;;;;;60.35;30.60;;;7.80;99.90;;;6.60;75.10;100470.22;5022466;28;20040;-81
2024/03/10 08:00:33;;;;;;;59.72;29.52;;;7.80;99.90;;;6.64;74.91;100469.22;5011156;28;20100;-81
2024/03/10 08:02:59;;;;;;;59.13;28.33;;;7.90;99.90;;;6.72;75.43;100471.59;5022880;28;20124;-81
2024/03/10 08:05:25;;;;;;;59.33;29.25;;;7.90;99.90;;;6.81;75.23;100478.25;5013543;28;20185;-80
2024/03/10 08:07:52;;;;;;;60.38;29.02;;;8.10;99.90;;;6.91;75.09;100470.03;5010264;28;20048;-81
2024/03/10 08:10:18;;;;;;;72.57;30.00;;;8.20;99.90;;;6.97;74.84;100476.78;5026692;28;20037;-81
2024/03/10 08:12:55;;;;;;;54.30;29.33;;;8.20;99.90;;;7.13;74.96;100479.72;5014090;28;20031;-80
2024/03/10 08:15:22;;;;;;;59.00;28.55;;;8.30;99.90;;;7.22;74.52;100473.31;5013993;28;20051;-81
2024/03/10 08:17:48;;;;;;;56.90;29.75;;;8.40;99.90;;;7.33;74.60;100479.00;4995741;28;20046;-80
2024/03/10 08:20:24;;;;;;;55.40;27.98;;;8.50;99.90;;;7.42;73.83;100478.66;5004512;28;20039;-81
2024/03/10 08:22:49;;;;;;;;;;;8.60;99.90;;;7.47;73.64;100481.94;5061091;28;20056;-81
2024/03/10 08:25:16;;;;;;;55.90;26.80;;;8.70;99.90;;;7.57;73.49;100485.91;4994883;28;20007;-81
2024/03/10 08:27:49;;;;;;;56.92;28.35;;;8.80;99.90;;;7.70;73.04;100482.84;5001860;28;20067;-81
2024/03/10 08:30:15;;;;;;;57.25;29.20;;;8.90;99.90;;;7.80;73.27;100484.19;5019916;28;20569;-81
2024/03/10 08:32:41;;;;;;;56.83;28.02;;;9.00;99.90;;;7.85;72.78;100490.09;5033127;28;20036;-81
2024/03/10 08:35:13;;;;;;;58.58;30.08;;;9.00;99.90;;;7.90;72.68;100477.66;5020990;28;20045;-81
2024/03/10 08:37:40;;;;;;;63.90;30.60;;;9.10;99.90;;;7.95;72.02;100488.00;4962313;28;20489;-81
2024/03/10 08:40:10;;;;;;;59.72;29.25;;;9.10;99.90;;;7.98;71.81;100483.47;5013742;28;20059;-80
2024/03/10 08:42:47;;;;;;;57.85;28.30;;;9.20;99.90;;;8.02;72.11;100482.44;5016191;28;20037;-80
2024/03/10 08:45:12;;;;;;;58.92;28.70;;;9.20;99.90;;;8.06;71.90;100474.47;4997324;28;20185;-80
2024/03/10 08:47:47;;;;;;;55.08;27.75;;;9.20;99.90;;;8.11;71.47;100478.59;4983097;28;20052;-81
2024/03/10 08:50:14;;;;;;;57.35;28.55;;;;;;;8.15;71.01;100484.56;5021550;28;20036;-82
2024/03/10 08:52:40;;;;;;;56.47;29.08;;;9.30;99.90;;;8.18;71.56;100487.91;5029340;28;20033;-81
2024/03/10 08:55:07;;;;;;;55.90;28.10;;;9.40;99.90;;;8.31;71.74;100472.50;5036764;28;20182;-81
2024/03/10 08:57:38;;;;;;;55.35;29.15;;;9.50;99.90;;;8.57;71.45;100476.75;4989413;28;20071;-81
2024/03/10 09:00:05;;;;;;;59.20;29.30;;;9.80;99.90;;;8.76;70.70;100482.03;5020499;28;22231;-81
2024/03/10 09:02:31;;;;;;;57.38;28.60;;;9.90;99.90;;;8.99;70.55;100485.44;5016116;28;20036;-81
2024/03/10 09:05:07;;;;;;;56.40;28.65;;;10.10;99.90;;;9.13;70.25;100495.34;5029396;28;20032;-82
2024/03/10 09:07:34;;;;;;;52.95;28.23;;;10.20;99.90;;;9.17;69.34;100496.91;5025037;28;20044;-81
2024/03/10 09:10:02;;;;;;;55.85;29.17;;;10.30;99.90;;;9.13;69.10;100501.44;5028969;28;20511;-81
2024/03/10 09:12:32;;;;;;;54.00;28.50;;;10.20;99.90;;;9.09;69.37;100510.38;5005289;28;20032;-81
2024/03/10 09:14:58;;;;;;;53.40;27.83;;;10.20;99.90;;;9.00;69.55;100501.13;5026917;28;20037;-80
2024/03/10 09:17:25;;;;;;;57.22;28.50;;;10.20;99.90;;;9.05;69.67;100500.94;5046165;28;20032;-82
2024/03/10 09:19:52;;;;;;;54.05;29.65;;;10.20;99.90;;;9.15;69.59;100507.47;5049296;28;20031;-81
2024/03/10 09:22:19;;;;;;;53.35;28.75;;;10.30;99.90;;;9.29;69.69;100509.50;5015905;28;20037;-81
2024/03/10 09:24:50;;;;;;;56.72;28.52;;;10.50;99.90;;;9.51;69.54;100517.28;5010529;28;20400;-81
2024/03/10 09:27:19;;;;;;;58.05;28.48;;;10.70;99.90;;;9.72;69.07;100520.69;5026854;28;20036;-81
2024/03/10 09:29:46;;;;;;;53.53;25.45;;;10.80;99.90;;;9.93;68.08;100524.09;5018078;28;20041;-81
2024/03/10 09:32:22;;;;;;;53.72;27.67;;;11.10;99.90;;;10.17;67.46;100526.47;5015530;28;20055;-82
2024/03/10 09:34:59;;;;;;;54.58;27.38;;;11.30;99.90;;;10.44;67.47;100522.53;5018775;28;20040;-81
2024/03/10 09:37:32;;;;;;;51.13;27.40;;;11.60;99.90;;;10.64;66.13;100539.13;5004164;28;20671;-81
2024/03/10 09:40:09;;;;;;;54.17;26.42;;;11.70;99.90;;;10.81;65.28;100540.91;5019849;28;20074;-81
2024/03/10 09:42:42;;;;;;;50.50;27.92;;;11.90;99.90;;;10.93;65.24;100531.53;4971213;28;20033;-81
2024/03/10 09:45:15;;;;;;;51.10;27.48;;;12.00;99.90;;;11.01;64.60;100530.19;4996941;28;20032;-81
2024/03/10 09:47:49;;;;;;;52.00;27.55;;;12.10;99.90;;;11.02;63.80;100536.34;4996349;28;20056;-81
2024/03/10 09:50:27;;;;;;;51.33;27.33;;;12.10;99.90;;;11.01;63.81;100530.19;4992170;28;20045;-80
2024/03/10 09:52:56;;;;;;;55.85;28.73;;;12.10;99.90;;;11.02;64.10;100528.44;5041888;28;20028;-81
2024/03/10 09:55:24;;;;;;;51.03;29.27;;;12.10;99.90;;;11.09;64.77;100535.09;5011021;28;20096;-81
2024/03/10 09:57:57;;;;;;;49.78;27.35;;;12.20;99.90;;;11.12;64.35;100528.81;5027482;28;20028;-81
2024/03/10 10:00:28;;;;;;;49.53;28.02;;;12.20;99.90;;;11.17;63.90;100519.75;5025879;28;20446;-81
2024/03/10 10:03:15;;;;;;;52.75;28.23;;;12.30;99.90;;;11.13;63.73;100519.97;5048014;28;20036;-82
2024/03/10 10:05:53;;;;;;;51.03;27.52;;;12.30;99.90;;;11.11;62.96;100524.47;5038771;28;20040;-82
2024/03/10 10:08:19;;;;;;;48.38;26.90;;;12.20;99.90;;;11.09;63.54;100517.50;5023916;28;20586;-81
2024/03/10 10:10:49;;;;;;;47.08;26.20;;;12.20;99.90;;;11.06;63.79;100516.81;5010905;28;20051;-82
2024/03/10 10:13:23;;;;;;;53.53;27.25;;;12.20;99.90;;;11.09;63.54;100508.75;5006885;28;20037;-81
2024/03/10 10:15:52;;;;;;;50.28;27.92;;;12.20;99.90;;;10.99;63.59;100510.13;5044026;28;20055;-81
2024/03/10 10:18:18;;;;;;;49.67;26.77;;;12.10;99.90;;;10.95;64.34;100485.75;4996548;28;20047;-81
2024/03/10 10:20:54;;;;;;;51.17;26.70;;;12.20;99.90;;;11.06;64.70;100488.69;5019827;28;20613;-82
2024/03/10 10:23:30;;;;;;;47.63;25.88;;;12.20;99.90;;;11.06;63.46;100491.31;5030005;28;20032;-79
2024/03/10 10:26:10;;;;;;;51.28;27.02;;;12.10;99.90;;;10.99;63.15;100499.59;5036387;28;20032;-79
2024/03/10 10:28:42;;;;;;;54.67;27.38;;;12.10;99.90;;;10.97;63.48;100493.56;5024915;28;20092;-82
2024/03/10 10:31:15;;;;;;;49.05;26.45;;;12.10;99.90;;;11.06;64.51;100493.09;5037010;28;20040;-80
2024/03/10 10:33:47;;;;;;;51.70;26.70;;;12.10;99.90;;;10.90;63.79;100500.09;4992256;28;20032;-81
2024/03/10 10:36:22;;;;;;;47.17;25.70;;;12.00;99.90;;;10.77;63.36;100492.81;5010589;28;20055;-81
2024/03/10 10:38:50;;;;;;;48.90;25.92;;;11.90;99.90;;;10.70;63.38;100491.44;5003570;28;20041;-81
2024/03/10 10:41:24;;;;;;;50.38;26.15;;;11.90;99.90;;;10.72;63.62;100491.34;5012225;28;20082;-80